createdAt,value
2023-02-15T00:01:53.288Z,79.11
2023-02-15T00:04:23.213Z,79.11
2023-02-15T00:06:51.574Z,79.09
2023-02-15T00:09:19.272Z,78.95
2023-02-15T00:11:51.023Z,78.82
2023-02-15T00:14:21.087Z,78.99
2023-02-15T00:16:50.106Z,79.28
2023-02-15T00:19:20.842Z,79.30
2023-02-15T00:21:49.901Z,78.86
2023-02-15T00:24:19.755Z,79.01
2023-02-15T00:26:48.463Z,78.93
2023-02-15T00:29:17.672Z,79.10
2023-02-15T00:31:45.549Z,79.07
2023-02-15T00:34:15.317Z,79.32
2023-02-15T00:36:44.745Z,79.47
2023-02-15T00:39:12.864Z,79.56
2023-02-15T00:41:40.993Z,79.39
2023-02-15T00:44:09.000Z,79.46
2023-02-15T00:46:37.118Z,79.20
2023-02-15T00:49:05.499Z,79.23
2023-02-15T00:51:33.196Z,79.41
2023-02-15T00:54:02.270Z,79.02
2023-02-15T00:56:30.222Z,79.14
2023-02-15T00:58:57.932Z,79.08
2023-02-15T01:01:26.769Z,79.02
2023-02-15T01:03:54.854Z,78.96
2023-02-15T01:06:22.766Z,79.29
2023-02-15T01:08:50.457Z,79.54
2023-02-15T01:11:23.744Z,80.17
2023-02-15T01:13:52.684Z,80.14
2023-02-15T01:16:20.912Z,80.42
2023-02-15T01:18:49.490Z,80.10
2023-02-15T01:21:20.086Z,80.13
2023-02-15T01:23:48.596Z,80.26
2023-02-15T01:26:16.807Z,80.26
2023-02-15T01:28:45.966Z,80.68
2023-02-15T01:31:16.165Z,80.62
2023-02-15T01:33:43.908Z,80.79
2023-02-15T01:36:12.236Z,80.86
2023-02-15T01:38:40.959Z,80.69
2023-02-15T01:41:27.989Z,80.59
2023-02-15T01:43:59.006Z,80.68
2023-02-15T01:46:32.897Z,80.64
2023-02-15T01:49:09.011Z,80.27
2023-02-15T01:51:39.981Z,80.05
2023-02-15T01:54:13.996Z,80.17
2023-02-15T01:56:43.827Z,79.81
2023-02-15T01:59:18.995Z,79.64
2023-02-15T02:01:46.893Z,79.75
2023-02-15T02:04:22.597Z,79.70
2023-02-15T02:06:52.122Z,79.36
2023-02-15T02:09:19.796Z,79.60
2023-02-15T02:11:50.034Z,79.42
2023-02-15T02:14:19.778Z,79.60
2023-02-15T02:16:55.189Z,79.93
2023-02-15T02:20:00.447Z,80.39
2023-02-15T02:22:59.162Z,80.57
2023-02-15T02:26:24.813Z,80.13
2023-02-15T02:29:24.230Z,79.60
2023-02-15T02:32:09.564Z,79.96
2023-02-15T02:34:45.311Z,80.05
2023-02-15T02:37:24.744Z,79.81
2023-02-15T02:40:05.818Z,79.41
2023-02-15T02:42:41.045Z,79.97
2023-02-15T02:45:11.468Z,80.63
2023-02-15T02:47:45.130Z,80.25
2023-02-15T02:50:18.484Z,80.28
2023-02-15T02:52:47.310Z,80.03
2023-02-15T02:55:19.372Z,80.17
2023-02-15T02:57:54.542Z,79.97
2023-02-15T03:00:23.945Z,79.46
2023-02-15T03:02:59.296Z,79.30
2023-02-15T03:05:31.739Z,79.38
2023-02-15T03:08:02.147Z,79.23
2023-02-15T03:10:31.478Z,79.42
2023-02-15T03:12:59.252Z,79.41
2023-02-15T03:15:50.909Z,80.04
2023-02-15T03:18:20.081Z,80.51
2023-02-15T03:20:51.476Z,80.50
2023-02-15T03:23:22.438Z,80.57
2023-02-15T03:25:53.683Z,80.57
2023-02-15T03:28:27.307Z,80.54
2023-02-15T03:30:58.809Z,80.45
2023-02-15T03:33:29.822Z,80.43
2023-02-15T03:36:04.504Z,80.08
2023-02-15T03:38:40.325Z,79.46
2023-02-15T03:41:12.723Z,79.12
2023-02-15T03:43:49.349Z,78.77
2023-02-15T03:46:26.490Z,78.77
2023-02-15T03:48:56.630Z,79.50
2023-02-15T03:51:38.958Z,79.75
2023-02-15T03:54:10.244Z,79.64
2023-02-15T03:56:40.264Z,79.79
2023-02-15T03:59:25.716Z,79.20
2023-02-15T04:02:03.954Z,79.59
2023-02-15T04:04:37.786Z,79.66
2023-02-15T04:07:09.650Z,79.18
2023-02-15T04:09:54.671Z,79.39
2023-02-15T04:12:22.546Z,79.50
2023-02-15T04:15:07.877Z,80.22
2023-02-15T04:17:35.730Z,80.12
2023-02-15T04:20:21.105Z,79.98
2023-02-15T04:23:07.902Z,80.43
2023-02-15T04:25:35.785Z,80.40
2023-02-15T04:28:03.438Z,80.24
2023-02-15T04:30:31.308Z,79.83
2023-02-15T04:32:59.620Z,79.62
2023-02-15T04:35:27.663Z,79.31
2023-02-15T04:37:57.188Z,79.24
2023-02-15T04:40:24.846Z,79.21
2023-02-15T04:42:52.563Z,79.19
2023-02-15T04:45:20.286Z,79.20
2023-02-15T04:47:48.041Z,79.92
2023-02-15T04:50:15.696Z,80.06
2023-02-15T04:52:43.347Z,80.20
2023-02-15T04:55:12.361Z,80.00
2023-02-15T04:57:40.030Z,79.61
2023-02-15T05:00:10.092Z,79.17
2023-02-15T05:02:37.802Z,79.85
2023-02-15T05:05:05.912Z,81.42
2023-02-15T05:07:33.596Z,81.54
2023-02-15T05:10:01.264Z,82.12
2023-02-15T05:12:30.280Z,82.26
2023-02-15T05:14:57.935Z,82.11
2023-02-15T05:17:25.786Z,82.11
2023-02-15T05:19:53.481Z,82.11
2023-02-15T05:22:21.250Z,81.43
2023-02-15T05:25:06.586Z,81.40
2023-02-15T05:27:53.652Z,81.10
2023-02-15T05:30:21.997Z,81.02
2023-02-15T05:32:49.809Z,80.58
2023-02-15T05:35:19.851Z,80.83
2023-02-15T05:37:47.527Z,81.50
2023-02-15T05:40:15.457Z,81.09
2023-02-15T05:42:44.567Z,81.41
2023-02-15T05:45:12.319Z,81.42
2023-02-15T05:47:40.041Z,81.32
2023-02-15T05:50:08.786Z,80.84
2023-02-15T05:52:36.989Z,81.22
2023-02-15T05:55:05.185Z,81.44
2023-02-15T05:57:32.889Z,81.28
2023-02-15T06:00:02.117Z,82.04
2023-02-15T06:02:29.840Z,81.55
2023-02-15T06:04:57.647Z,81.37
2023-02-15T06:07:25.384Z,81.66
2023-02-15T06:09:52.975Z,82.28
2023-02-15T06:12:20.820Z,82.15
2023-02-15T06:14:48.534Z,82.27
2023-02-15T06:17:18.400Z,81.43
2023-02-15T06:19:46.241Z,81.31
2023-02-15T06:22:14.991Z,80.91
2023-02-15T06:24:43.671Z,81.03
2023-02-15T06:27:11.622Z,81.28
2023-02-15T06:29:39.309Z,80.97
2023-02-15T06:32:07.644Z,81.28
2023-02-15T06:34:36.788Z,81.26
2023-02-15T06:37:04.384Z,81.06
2023-02-15T06:39:32.035Z,80.34
2023-02-15T06:41:59.874Z,80.93
2023-02-15T06:44:27.717Z,80.80
2023-02-15T06:46:55.403Z,80.99
2023-02-15T06:49:23.080Z,80.53
2023-02-15T06:51:52.046Z,80.18
2023-02-15T06:54:19.807Z,80.08
2023-02-15T06:56:47.420Z,79.88
2023-02-15T06:59:15.063Z,79.50
2023-02-15T07:01:42.804Z,79.48
2023-02-15T07:04:10.459Z,79.78
2023-02-15T07:06:38.120Z,79.43
2023-02-15T07:09:07.257Z,79.56
2023-02-15T07:11:53.098Z,80.26
2023-02-15T07:14:20.772Z,80.79
2023-02-15T07:16:48.416Z,80.42
2023-02-15T07:19:16.109Z,80.74
2023-02-15T07:21:44.933Z,80.67
2023-02-15T07:24:14.050Z,80.83
2023-02-15T07:26:41.753Z,80.86
2023-02-15T07:29:09.520Z,80.63
2023-02-15T07:31:37.141Z,80.52
2023-02-15T07:34:04.797Z,81.69
2023-02-15T07:36:32.585Z,81.06
2023-02-15T07:39:00.190Z,80.75
2023-02-15T07:41:29.258Z,80.60
2023-02-15T07:43:56.972Z,80.77
2023-02-15T07:46:24.575Z,80.41
2023-02-15T07:48:52.334Z,80.20
2023-02-15T07:51:20.057Z,80.79
2023-02-15T07:53:48.179Z,81.92
2023-02-15T07:56:17.343Z,82.38
2023-02-15T07:58:56.691Z,82.59
2023-02-15T08:01:26.889Z,83.22
2023-02-15T08:03:57.968Z,83.55
2023-02-15T08:06:27.868Z,83.07
2023-02-15T08:08:55.580Z,83.83
2023-02-15T08:11:29.975Z,84.81
2023-02-15T08:14:01.155Z,84.37
2023-02-15T08:16:32.270Z,84.43
2023-02-15T08:19:01.832Z,84.21
2023-02-15T08:21:31.266Z,84.28
2023-02-15T08:23:59.569Z,84.18
2023-02-15T08:26:29.142Z,83.76
2023-02-15T08:28:57.635Z,84.51
2023-02-15T08:31:26.845Z,84.61
2023-02-15T08:33:56.246Z,83.75
2023-02-15T08:36:26.005Z,83.75
2023-02-15T08:38:53.791Z,83.24
2023-02-15T08:41:23.831Z,83.13
2023-02-15T08:43:54.747Z,82.91
2023-02-15T08:46:24.074Z,83.43
2023-02-15T08:48:53.774Z,84.07
2023-02-15T08:51:23.657Z,84.52
2023-02-15T08:53:52.566Z,84.23
2023-02-15T08:56:23.253Z,82.52
2023-02-15T08:58:51.339Z,82.74
2023-02-15T09:01:21.014Z,83.00
2023-02-15T09:03:50.690Z,83.44
2023-02-15T09:06:19.664Z,83.60
2023-02-15T09:08:47.561Z,84.30
2023-02-15T09:11:23.321Z,84.12
2023-02-15T09:13:52.167Z,83.67
2023-02-15T09:16:19.732Z,84.05
2023-02-15T09:18:48.301Z,83.99
2023-02-15T09:21:18.064Z,84.53
2023-02-15T09:23:48.863Z,84.65
2023-02-15T09:26:18.979Z,84.59
2023-02-15T09:28:46.780Z,84.75
2023-02-15T09:31:16.976Z,84.85
2023-02-15T09:33:46.403Z,84.82
2023-02-15T09:36:18.892Z,84.26
2023-02-15T09:38:49.497Z,83.00
2023-02-15T09:41:37.393Z,81.69
2023-02-15T09:44:14.848Z,81.53
2023-02-15T09:47:01.184Z,81.67
2023-02-15T09:49:39.900Z,81.01
2023-02-15T09:52:23.549Z,81.28
2023-02-15T09:55:12.674Z,81.69
2023-02-15T09:57:50.358Z,81.63
2023-02-15T10:00:25.279Z,81.53
2023-02-15T10:03:15.597Z,81.26
2023-02-15T10:05:56.893Z,80.93
2023-02-15T10:08:50.798Z,80.94
2023-02-15T10:11:43.350Z,80.77
2023-02-15T10:14:39.736Z,79.99
2023-02-15T10:17:21.057Z,79.42
2023-02-15T10:20:01.957Z,80.03
2023-02-15T10:22:40.923Z,79.89
2023-02-15T10:25:19.460Z,78.87
2023-02-15T10:27:50.882Z,78.07
2023-02-15T10:30:25.866Z,79.18
2023-02-15T10:33:01.413Z,80.05
2023-02-15T10:35:41.510Z,79.16
2023-02-15T10:38:20.130Z,79.08
2023-02-15T10:41:00.822Z,78.85
2023-02-15T10:43:46.401Z,77.17
2023-02-15T10:46:26.266Z,76.67
2023-02-15T10:49:22.367Z,77.37
2023-02-15T10:52:05.653Z,77.64
2023-02-15T10:54:42.685Z,77.14
2023-02-15T10:57:19.923Z,78.42
2023-02-15T11:00:01.624Z,78.41
2023-02-15T11:02:41.637Z,78.15
2023-02-15T11:05:27.135Z,79.38
2023-02-15T11:07:58.857Z,79.50
2023-02-15T11:10:32.539Z,80.24
2023-02-15T11:13:07.389Z,79.90
2023-02-15T11:15:41.452Z,79.61
2023-02-15T11:18:15.412Z,79.51
2023-02-15T11:20:52.163Z,79.37
2023-02-15T11:23:20.278Z,79.67
2023-02-15T11:25:55.468Z,80.97
2023-02-15T11:28:29.823Z,80.58
2023-02-15T11:31:04.213Z,80.84
2023-02-15T11:33:39.556Z,81.40
2023-02-15T11:36:14.047Z,81.17
2023-02-15T11:38:44.646Z,81.02
2023-02-15T11:41:15.917Z,80.34
2023-02-15T11:43:48.770Z,80.24
2023-02-15T11:46:19.733Z,78.79
2023-02-15T11:48:47.481Z,77.86
2023-02-15T11:51:18.073Z,77.35
2023-02-15T11:53:47.508Z,77.37
2023-02-15T11:56:17.578Z,76.44
2023-02-15T11:58:50.002Z,76.88
2023-02-15T12:01:24.140Z,77.26
2023-02-15T12:03:53.770Z,77.38
2023-02-15T12:06:26.494Z,77.38
2023-02-15T12:09:03.040Z,77.48
2023-02-15T12:11:36.068Z,77.08
2023-02-15T12:14:06.750Z,75.94
2023-02-15T12:16:43.661Z,75.37
2023-02-15T12:19:28.390Z,75.38
2023-02-15T12:21:56.683Z,76.31
2023-02-15T12:24:28.589Z,76.59
2023-02-15T12:27:03.038Z,76.38
2023-02-15T12:29:36.953Z,76.20
2023-02-15T12:32:06.601Z,76.94
2023-02-15T12:34:40.567Z,77.66
2023-02-15T12:37:13.772Z,77.70
2023-02-15T12:39:53.818Z,77.09
2023-02-15T12:42:22.697Z,76.03
2023-02-15T12:44:59.882Z,75.65
2023-02-15T12:47:30.364Z,75.75
2023-02-15T12:50:19.937Z,75.01
2023-02-15T12:52:49.869Z,75.07
2023-02-15T12:55:24.544Z,74.36
2023-02-15T12:58:07.470Z,74.99
2023-02-15T13:00:36.014Z,75.04
2023-02-15T13:03:05.840Z,75.35
2023-02-15T13:05:37.431Z,75.71
2023-02-15T13:08:12.650Z,75.62
2023-02-15T13:10:45.086Z,74.72
2023-02-15T13:13:18.887Z,74.78
2023-02-15T13:15:50.523Z,74.45
2023-02-15T13:18:27.841Z,74.51
2023-02-15T13:20:55.581Z,75.80
2023-02-15T13:23:29.485Z,75.51
2023-02-15T13:26:00.321Z,75.53
2023-02-15T13:28:38.789Z,75.01
2023-02-15T13:31:14.359Z,75.47
2023-02-15T13:33:49.057Z,75.87
2023-02-15T13:36:24.032Z,74.62
2023-02-15T13:38:59.560Z,75.27
2023-02-15T13:41:35.040Z,76.36
2023-02-15T13:44:15.604Z,76.05
2023-02-15T13:46:58.405Z,76.28
2023-02-15T13:49:41.666Z,75.99
2023-02-15T13:52:20.671Z,75.51
2023-02-15T13:55:13.941Z,75.08
2023-02-15T13:58:16.517Z,74.89
2023-02-15T14:00:51.148Z,75.75
2023-02-15T14:03:39.112Z,76.60
2023-02-15T14:06:23.713Z,77.63
2023-02-15T14:09:04.988Z,77.57
2023-02-15T14:11:39.317Z,77.71
2023-02-15T14:14:54.916Z,77.87
2023-02-15T14:17:31.814Z,77.83
2023-02-15T14:20:03.924Z,77.68
2023-02-15T14:22:37.172Z,78.10
2023-02-15T14:25:20.462Z,78.07
2023-02-15T14:27:58.150Z,77.97
2023-02-15T14:30:31.098Z,78.37
2023-02-15T14:33:03.624Z,78.33
2023-02-15T14:35:33.593Z,77.54
2023-02-15T14:38:11.848Z,78.05
2023-02-15T14:41:05.091Z,77.22
2023-02-15T14:43:46.852Z,77.71
2023-02-15T14:46:23.968Z,78.41
2023-02-15T14:48:54.214Z,78.52
2023-02-15T14:51:59.856Z,79.00
2023-02-15T14:54:58.036Z,79.03
2023-02-15T14:57:29.264Z,77.93
2023-02-15T14:59:59.281Z,78.63
2023-02-15T15:02:30.892Z,79.32
2023-02-15T15:05:03.824Z,79.73
2023-02-15T15:07:40.525Z,80.26
2023-02-15T15:10:42.413Z,80.62
2023-02-15T15:13:39.410Z,78.84
2023-02-15T15:16:49.956Z,79.37
2023-02-15T15:20:05.925Z,78.97
2023-02-15T15:22:35.046Z,78.42
2023-02-15T15:25:03.653Z,78.47
2023-02-15T15:27:59.880Z,78.15
2023-02-15T15:31:04.224Z,78.19
2023-02-15T15:34:15.350Z,78.04
2023-02-15T15:37:30.467Z,78.41
2023-02-15T15:40:33.136Z,77.69
2023-02-15T15:43:49.009Z,77.89
2023-02-15T15:47:02.787Z,78.66
2023-02-15T15:49:33.356Z,78.14
2023-02-15T15:52:03.020Z,78.83
2023-02-15T15:54:31.973Z,79.02
2023-02-15T15:57:04.184Z,78.49
2023-02-15T15:59:35.598Z,78.45
2023-02-15T16:02:09.502Z,78.23
2023-02-15T16:04:37.463Z,78.55
2023-02-15T16:07:22.457Z,78.03
2023-02-15T16:09:56.966Z,78.60
2023-02-15T16:12:25.570Z,79.58
2023-02-15T16:14:56.288Z,79.88
2023-02-15T16:17:26.027Z,79.03
2023-02-15T16:19:59.184Z,78.68
2023-02-15T16:22:28.600Z,77.97
2023-02-15T16:25:33.033Z,77.33
2023-02-15T16:28:08.762Z,78.52
2023-02-15T16:30:40.316Z,79.20
2023-02-15T16:33:09.944Z,79.90
2023-02-15T16:35:39.983Z,79.79
2023-02-15T16:38:11.016Z,79.39
2023-02-15T16:40:54.675Z,79.02
2023-02-15T16:43:26.739Z,79.48
2023-02-15T16:46:05.359Z,79.65
2023-02-15T16:48:36.309Z,79.27
2023-02-15T16:51:04.551Z,79.09
2023-02-15T16:53:32.516Z,79.28
2023-02-15T16:56:03.164Z,78.97
2023-02-15T16:58:37.995Z,78.65
2023-02-15T17:01:10.919Z,78.98
2023-02-15T17:03:39.341Z,79.31
2023-02-15T17:06:21.114Z,78.73
2023-02-15T17:08:49.012Z,78.19
2023-02-15T17:11:18.925Z,79.04
2023-02-15T17:14:21.968Z,79.68
2023-02-15T17:16:54.807Z,80.18
2023-02-15T17:19:27.181Z,79.39
2023-02-15T17:21:56.484Z,80.24
2023-02-15T17:24:37.227Z,81.21
2023-02-15T17:27:12.881Z,80.99
2023-02-15T17:29:43.202Z,81.10
2023-02-15T17:32:19.981Z,80.80
2023-02-15T17:35:09.235Z,79.73
2023-02-15T17:37:48.702Z,79.66
2023-02-15T17:40:22.016Z,79.80
2023-02-15T17:42:49.919Z,79.83
2023-02-15T17:45:18.408Z,79.55
2023-02-15T17:47:50.311Z,80.58
2023-02-15T17:50:22.460Z,80.87
2023-02-15T17:52:50.602Z,80.50
2023-02-15T17:55:39.403Z,81.01
2023-02-15T17:58:09.759Z,82.02
2023-02-15T18:00:57.994Z,82.06
2023-02-15T18:03:57.155Z,81.45
2023-02-15T18:06:42.652Z,80.93
2023-02-15T18:09:30.299Z,80.54
2023-02-15T18:11:59.207Z,81.19
2023-02-15T18:14:26.920Z,81.57
2023-02-15T18:16:56.153Z,82.06
2023-02-15T18:19:27.232Z,82.94
2023-02-15T18:21:57.597Z,82.71
2023-02-15T18:24:26.989Z,83.65
2023-02-15T18:26:55.887Z,83.58
2023-02-15T18:29:23.732Z,83.72
2023-02-15T18:31:54.872Z,83.24
2023-02-15T18:34:28.626Z,83.17
2023-02-15T18:36:57.645Z,83.07
2023-02-15T18:39:30.703Z,82.42
2023-02-15T18:41:58.807Z,82.38
2023-02-15T18:44:27.325Z,81.54
2023-02-15T18:46:55.141Z,81.58
2023-02-15T18:49:22.874Z,81.90
2023-02-15T18:51:53.344Z,81.44
2023-02-15T18:54:23.655Z,82.06
2023-02-15T18:56:56.525Z,82.28
2023-02-15T18:59:25.157Z,82.56
2023-02-15T19:01:53.513Z,83.00
2023-02-15T19:04:23.054Z,83.10
2023-02-15T19:06:53.342Z,83.57
2023-02-15T19:09:23.560Z,83.96
2023-02-15T19:11:53.582Z,84.42
2023-02-15T19:14:27.199Z,84.65
2023-02-15T19:16:55.877Z,84.67
2023-02-15T19:19:24.014Z,84.96
2023-02-15T19:21:53.703Z,84.85
2023-02-15T19:24:25.219Z,84.47
2023-02-15T19:26:53.807Z,84.41
2023-02-15T19:29:28.404Z,83.59
2023-02-15T19:32:01.502Z,82.91
2023-02-15T19:34:29.579Z,82.82
2023-02-15T19:36:58.868Z,83.45
2023-02-15T19:39:30.146Z,83.31
2023-02-15T19:41:58.218Z,82.58
2023-02-15T19:44:26.171Z,81.35
2023-02-15T19:46:54.095Z,81.50
2023-02-15T19:49:28.039Z,80.82
2023-02-15T19:52:03.221Z,80.56
2023-02-15T19:54:35.640Z,80.78
2023-02-15T19:57:03.820Z,80.69
2023-02-15T19:59:34.019Z,80.25
2023-02-15T20:02:01.707Z,80.23
2023-02-15T20:04:29.579Z,81.58
2023-02-15T20:07:00.148Z,82.40
2023-02-15T20:09:31.761Z,82.17
2023-02-15T20:12:02.131Z,81.71
2023-02-15T20:14:29.855Z,81.55
2023-02-15T20:16:57.722Z,81.53
2023-02-15T20:19:25.630Z,81.24
2023-02-15T20:21:54.879Z,81.61
2023-02-15T20:24:23.544Z,81.97
2023-02-15T20:26:51.231Z,81.39
2023-02-15T20:29:22.149Z,81.30
2023-02-15T20:31:49.979Z,81.18
2023-02-15T20:34:20.775Z,80.52
2023-02-15T20:36:48.893Z,80.59
2023-02-15T20:39:20.514Z,81.15
2023-02-15T20:41:48.661Z,80.53
2023-02-15T20:44:24.076Z,80.97
2023-02-15T20:46:53.950Z,80.69
2023-02-15T20:49:22.168Z,80.96
2023-02-15T20:51:49.923Z,80.79
2023-02-15T20:54:19.988Z,80.22
2023-02-15T20:56:48.031Z,80.41
2023-02-15T20:59:23.966Z,80.73
2023-02-15T21:01:52.839Z,81.35
2023-02-15T21:04:28.505Z,81.35
2023-02-15T21:06:56.593Z,81.44
2023-02-15T21:09:24.252Z,81.47
2023-02-15T21:11:53.982Z,81.98
2023-02-15T21:14:24.968Z,82.43
2023-02-15T21:16:52.705Z,82.41
2023-02-15T21:19:22.163Z,82.43
2023-02-15T21:21:52.191Z,82.43
2023-02-15T21:24:23.353Z,82.01
2023-02-15T21:26:51.313Z,81.63
2023-02-15T21:29:20.256Z,81.65
2023-02-15T21:31:49.925Z,81.83
2023-02-15T21:34:19.574Z,81.52
2023-02-15T21:36:50.730Z,80.96
2023-02-15T21:39:21.588Z,81.44
2023-02-15T21:42:09.936Z,81.83
2023-02-15T21:44:55.843Z,82.30
2023-02-15T21:47:44.430Z,82.17
2023-02-15T21:50:32.232Z,81.11
2023-02-15T21:53:00.085Z,81.16
2023-02-15T21:55:27.948Z,81.12
2023-02-15T21:57:55.960Z,81.54
2023-02-15T22:00:25.493Z,81.99
2023-02-15T22:02:56.243Z,81.81
2023-02-15T22:05:28.485Z,82.22
2023-02-15T22:07:57.312Z,82.43
2023-02-15T22:10:27.339Z,83.37
2023-02-15T22:12:56.123Z,83.86
2023-02-15T22:15:25.859Z,82.33
2023-02-15T22:17:54.959Z,82.50
2023-02-15T22:20:25.489Z,82.07
2023-02-15T22:22:53.717Z,81.11
2023-02-15T22:25:24.081Z,81.02
2023-02-15T22:27:53.878Z,81.82
2023-02-15T22:30:26.336Z,82.39
2023-02-15T22:32:56.398Z,82.26
2023-02-15T22:35:26.952Z,83.04
2023-02-15T22:37:54.916Z,83.14
2023-02-15T22:40:23.537Z,82.82
2023-02-15T22:42:52.737Z,82.42
2023-02-15T22:45:23.391Z,82.00
2023-02-15T22:47:54.196Z,81.90
2023-02-15T22:50:25.996Z,82.33
2023-02-15T22:52:54.023Z,83.51
2023-02-15T22:55:24.152Z,83.34
2023-02-15T22:57:55.810Z,82.49
2023-02-15T23:00:26.247Z,82.44
2023-02-15T23:02:54.066Z,82.62
2023-02-15T23:05:25.254Z,82.97
2023-02-15T23:07:53.612Z,83.36
2023-02-15T23:10:23.604Z,83.86
2023-02-15T23:13:11.005Z,83.15
2023-02-15T23:15:39.180Z,83.51
2023-02-15T23:18:18.083Z,83.23
2023-02-15T23:20:49.584Z,83.83
2023-02-15T23:23:17.690Z,84.04
2023-02-15T23:25:45.372Z,83.76
2023-02-15T23:28:21.682Z,83.38
2023-02-15T23:30:49.807Z,83.18
2023-02-15T23:33:20.145Z,83.93
2023-02-15T23:35:49.696Z,83.25
2023-02-15T23:38:24.371Z,82.42
2023-02-15T23:41:13.913Z,82.45
2023-02-15T23:43:43.821Z,82.48
2023-02-15T23:46:23.079Z,82.35
2023-02-15T23:48:50.720Z,81.54
2023-02-15T23:51:19.816Z,82.87
2023-02-15T23:53:47.663Z,82.50
2023-02-15T23:56:18.337Z,83.11
2023-02-15T23:58:47.689Z,82.62
